Time;durP1;ratioP1;P1;durP2;ratioP2;P2;SDS_P1;SDS_P2;PMS_P1;PMS_P2;Temp;Humidity;BMP_temperature;BMP_pressure;BME280_temperature;BME280_humidity;BME280_pressure;Samples;Min_cycle;Max_cycle;Signal;HPM_P1;HPM_P2
2022/01/10 00:00:22;;;;;;;;;36.33;32.00;;;;;4.25;96.59;98685.50;4984195;28;45461;-76
2022/01/10 00:02:51;;;;;;;;;48.00;40.33;;;;;4.25;96.31;98682.03;4997136;28;45514;-76
2022/01/10 00:05:18;;;;;;;;;37.67;33.00;;;;;4.26;96.50;98686.38;4992235;28;45430;-76
2022/01/10 00:07:43;;;;;;;;;51.00;43.33;;;;;4.26;96.25;98678.53;5006600;28;45531;-76
2022/01/10 00:10:10;;;;;;;;;46.67;39.67;;;;;4.26;96.23;98679.41;5005622;28;45436;-76
2022/01/10 00:12:35;;;;;;;;;44.33;39.33;;;;;4.27;95.94;98673.28;4987860;28;46148;-76
2022/01/10 00:15:01;;;;;;;;;41.67;35.67;;;;;4.27;96.56;98673.28;4986669;28;45464;-76
2022/01/10 00:17:27;;;;;;;;;45.33;37.00;;;;;4.25;96.39;98679.44;4989237;28;45436;-76
2022/01/10 00:19:52;;;;;;;;;36.00;34.00;;;;;4.28;96.53;98677.63;5006542;28;45494;-76
2022/01/10 00:22:19;;;;;;;;;37.00;33.33;;;;;4.31;95.96;98681.91;4996123;28;45444;-76
2022/01/10 00:24:45;;;;;;;;;32.67;32.00;;;;;4.31;96.00;98674.94;5008917;28;45483;-76
2022/01/10 00:27:10;;;;;;;;;32.33;29.00;;;;;4.32;96.30;98660.16;4987011;28;45576;-76
2022/01/10 00:29:36;;;;;;;;;40.00;31.00;;;;;4.31;96.39;98666.25;4989683;28;45329;-76
2022/01/10 00:32:01;;;;;;;;;30.33;27.33;;;;;4.32;96.43;98670.59;4994899;28;45971;-76
2022/01/10 00:34:27;;;;;;;;;30.67;25.67;;;;;4.35;96.03;98670.53;5011496;28;45464;-76
2022/01/10 00:36:53;;;;;;;;;36.67;30.00;;;;;4.35;96.05;98666.16;4996340;28;45222;-77
2022/01/10 00:39:18;;;;;;;;;33.33;27.67;;;;;4.35;96.24;98666.16;5000373;28;45662;-76
2022/01/10 00:41:45;;;;;;;;;37.33;31.33;;;;;4.37;96.62;98653.06;4997120;28;46345;-77
2022/01/10 00:44:14;;;;;;;;;34.33;30.33;;;;;4.37;96.39;98651.31;4989407;28;45618;-75
2022/01/10 00:46:40;;;;;;;;;42.00;34.00;;;;;4.38;95.95;98662.59;4989045;28;45435;-76
2022/01/10 00:49:06;;;;;;;;;31.00;29.67;;;;;4.37;96.38;98658.28;5005373;28;45460;-76
2022/01/10 00:51:32;;;;;;;;;38.67;33.67;;;;;4.38;96.40;98662.59;4997132;28;46500;-76
2022/01/10 00:53:57;;;;;;;;;32.00;26.67;;;;;4.39;95.60;98657.34;4994916;28;45563;-76
2022/01/10 00:56:24;;;;;;;;;36.67;35.00;;;;;4.40;96.38;98666.03;4980658;28;45441;-76
2022/01/10 00:58:50;;;;;;;;;43.00;37.00;;;;;4.42;96.35;98662.50;4991887;28;45587;-76
2022/01/10 01:01:16;;;;;;;;;45.00;35.33;;;;;4.45;96.21;98656.38;4996111;28;45559;-76
2022/01/10 01:03:42;;;;;;;;;41.00;37.00;;;;;4.44;96.04;98665.94;4991829;28;45507;-76
2022/01/10 01:06:10;;;;;;;;;39.67;30.33;;;;;4.42;95.89;98653.81;4995716;28;45506;-76
2022/01/10 01:08:35;;;;;;;;;39.67;33.00;;;;;4.41;95.92;98668.63;4996273;28;45412;-76
2022/01/10 01:11:33;;;;;;;;;36.33;32.67;;;;;4.36;95.21;98665.25;4996518;28;45474;-76
2022/01/10 01:13:56;;;;;;;;;38.00;30.33;;;;;4.30;95.17;98670.63;4991037;28;45397;-76
2022/01/10 01:24:27;;;;;;;;;44.33;36.00;;;;;4.27;96.29;98690.69;5001669;28;45431;-76
2022/01/10 01:26:53;;;;;;;;;45.67;37.00;;;;;4.29;95.67;98696.75;4994827;28;45506;-76
2022/01/10 01:29:22;;;;;;;;;48.67;34.33;;;;;4.27;95.68;98699.38;5002027;28;45520;-76
2022/01/10 01:31:47;;;;;;;;;15.33;5.33;;;;;4.24;95.34;98699.44;5006341;28;47078;-76
2022/01/10 01:34:15;;;;;;;;;35.00;28.67;;;;;4.23;95.71;98700.34;5000811;28;45499;-76
2022/01/10 01:36:41;;;;;;;;;44.33;35.67;;;;;4.23;96.17;98700.34;4993933;28;45449;-75
2022/01/10 01:39:19;;;;;;;;;37.00;34.67;;;;;4.25;96.06;98706.38;4993051;28;45616;-76
2022/01/10 01:41:45;;;;;;;;;49.67;34.33;;;;;4.23;96.57;98705.56;4995955;28;45402;-75
2022/01/10 01:44:11;;;;;;;;;35.00;34.00;;;;;4.27;96.75;98708.97;4987571;28;45488;-75
2022/01/10 01:46:38;;;;;;;;;51.00;40.33;;;;;4.30;96.55;98706.28;4996130;28;45437;-75
2022/01/10 01:49:06;;;;;;;;;45.67;38.33;;;;;4.33;97.02;98722.75;4997256;28;45333;-75
2022/01/10 01:51:31;;;;;;;;;54.00;43.33;;;;;4.36;96.91;98725.25;4995499;28;46279;-78
2022/01/10 01:53:57;;;;;;;;;36.00;34.33;;;;;4.35;96.62;98726.19;4994433;28;45315;-78
2022/01/10 01:56:23;;;;;;;;;37.67;33.00;;;;;4.37;96.67;98719.16;5000647;28;45430;-75
2022/01/10 01:58:52;;;;;;;;;40.33;33.33;;;;;4.37;95.97;98719.16;5004892;28;45330;-77
2022/01/10 02:01:18;;;;;;;;;47.67;38.00;;;;;4.38;96.18;98720.00;4994832;28;45520;-78
2022/01/10 02:03:45;;;;;;;;;38.00;36.00;;;;;4.37;96.13;98713.94;4992145;28;45356;-75
2022/01/10 02:06:11;;;;;;;;;49.67;41.00;;;;;4.38;96.20;98709.56;4984432;28;45243;-74
2022/01/10 02:08:37;;;;;;;;;42.00;36.67;;;;;4.37;96.01;98716.53;4979902;28;45370;-75
2022/01/10 02:11:06;;;;;;;;;46.33;37.33;;;;;4.33;96.16;98707.09;4984618;28;45474;-76
2022/01/10 02:13:31;;;;;;;;;40.00;34.67;;;;;4.35;96.76;98709.66;4992387;28;45433;-75
2022/01/10 02:16:02;;;;;;;;;50.33;39.33;;;;;4.36;96.42;98709.59;4984344;28;45387;-77
2022/01/10 02:18:28;;;;;;;;;43.33;38.00;;;;;4.37;96.68;98715.69;4995870;28;45631;-76
2022/01/10 02:20:57;;;;;;;;;48.00;41.67;;;;;4.34;95.72;98718.38;4982321;28;46235;-77
2022/01/10 02:23:23;;;;;;;;;45.33;39.33;;;;;4.31;96.32;98714.09;4997021;28;45424;-77
2022/01/10 02:25:49;;;;;;;;;54.00;44.33;;;;;4.30;97.08;98719.34;4992100;28;45571;-77
2022/01/10 02:28:14;;;;;;;;;45.00;38.33;;;;;4.31;96.76;98718.44;4999269;28;45504;-77
2022/01/10 02:30:40;;;;;;;;;46.00;39.00;;;;;4.30;97.03;98717.59;4998235;28;47394;-76
2022/01/10 02:33:06;;;;;;;;;48.33;40.00;;;;;4.36;96.74;98722.66;4995917;28;45469;-77
2022/01/10 02:35:52;;;;;;;;;49.33;39.33;;;;;4.38;96.50;98728.69;4993454;28;45521;-76
2022/01/10 02:38:18;;;;;;;;;45.33;39.00;;;;;4.36;96.75;98725.25;4989532;28;45503;-77
2022/01/10 02:40:45;;;;;;;;;52.67;40.33;;;;;4.34;96.77;98726.22;4994507;28;45483;-77
2022/01/10 02:43:11;;;;;;;;;57.33;45.00;;;;;4.35;96.52;98722.72;4990767;28;45387;-77
2022/01/10 02:45:36;;;;;;;;;57.67;46.00;;;;;4.38;96.72;98720.00;4996465;28;45522;-77
2022/01/10 02:48:02;;;;;;;;;56.00;41.67;;;;;4.39;96.38;98722.59;4987486;28;45317;-76
2022/01/10 02:50:27;;;;;;;;;58.33;47.67;;;;;4.37;95.96;98719.16;4993855;28;45504;-76
2022/01/10 02:52:53;;;;;;;;;54.67;41.67;;;;;4.40;96.64;98720.84;4993320;28;45520;-77
2022/01/10 02:55:18;;;;;;;;;49.33;42.00;;;;;4.41;96.57;98720.81;5001946;28;45375;-77
2022/01/10 02:57:44;;;;;;;;;49.67;40.00;;;;;4.41;96.23;98719.94;4994801;28;45542;-76
2022/01/10 03:00:16;;;;;;;;;40.00;37.67;;;;;4.41;96.28;98715.59;4987482;28;46407;-76
2022/01/10 03:02:43;;;;;;;;;49.00;41.00;;;;;4.38;96.25;98715.66;4990805;28;45603;-76
2022/01/10 03:05:11;;;;;;;;;43.33;37.00;;;;;4.40;96.26;98721.69;4992472;28;45505;-77
2022/01/10 03:07:37;;;;;;;;;47.67;40.33;;;;;4.40;96.34;98732.16;4986483;28;45342;-76
2022/01/10 03:10:04;;;;;;;;;45.00;40.00;;;;;4.40;96.08;98733.91;5003842;28;46322;-76
2022/01/10 03:12:31;;;;;;;;;52.67;41.00;;;;;4.39;96.22;98735.66;4978348;28;45455;-77
2022/01/10 03:14:58;;;;;;;;;35.67;30.00;;;;;4.36;95.96;98732.22;4987018;28;45597;-77
2022/01/10 03:17:23;;;;;;;;;35.67;33.33;;;;;4.37;96.12;98731.34;4993667;28;45421;-76
2022/01/10 03:19:49;;;;;;;;;46.00;35.67;;;;;4.36;96.19;98729.63;4999060;28;48572;-77
2022/01/10 03:22:14;;;;;;;;;44.67;39.33;;;;;4.35;96.17;98723.56;5000433;28;45400;-77
2022/01/10 03:24:40;;;;;;;;;45.33;33.00;;;;;4.33;96.46;98716.66;5006833;28;45383;-77
2022/01/10 03:27:05;;;;;;;;;44.67;38.67;;;;;4.37;96.37;98728.72;5004599;28;45572;-76
2022/01/10 03:29:31;;;;;;;;;36.67;30.00;;;;;4.38;96.41;98731.31;4994332;28;45347;-76
2022/01/10 03:31:56;;;;;;;;;42.00;34.67;;;;;4.37;96.51;98723.50;4984842;28;45302;-76
2022/01/10 03:34:22;;;;;;;;;41.00;35.33;;;;;4.39;96.18;98738.25;4999438;28;45746;-77
2022/01/10 03:36:47;;;;;;;;;56.67;38.67;;;;;4.37;96.38;98734.81;4998052;28;45425;-76
2022/01/10 03:39:14;;;;;;;;;24.67;17.33;;;;;4.39;96.33;98737.41;4992108;28;46404;-77
2022/01/10 03:41:40;;;;;;;;;52.33;41.00;;;;;4.38;96.06;98736.53;4999728;28;45413;-76
2022/01/10 03:44:07;;;;;;;;;54.33;44.33;;;;;4.38;96.14;98728.69;4993460;28;45378;-77
2022/01/10 03:46:33;;;;;;;;;54.67;43.00;;;;;4.40;96.22;98726.94;4999370;28;45494;-76
2022/01/10 03:49:02;;;;;;;;;53.33;43.33;;;;;4.38;95.62;98722.63;5001719;28;45562;-76
2022/01/10 03:51:28;;;;;;;;;50.67;42.00;;;;;4.37;95.62;98724.38;5008129;28;45566;-77
2022/01/10 03:53:54;;;;;;;;;39.00;31.33;;;;;4.37;95.97;98739.16;5004226;28;45423;-77
2022/01/10 03:56:22;;;;;;;;;49.00;39.00;;;;;4.32;95.59;98728.84;5005206;28;45365;-76
2022/01/10 03:58:47;;;;;;;;;38.67;34.33;;;;;4.29;95.73;98731.53;4997419;28;45593;-76
2022/01/10 04:01:13;;;;;;;;;51.00;41.00;;;;;4.27;95.84;98740.28;4997814;28;45436;-77
2022/01/10 04:03:40;;;;;;;;;43.67;38.67;;;;;4.25;95.76;98731.63;4997962;28;45476;-76
2022/01/10 04:06:06;;;;;;;;;39.33;36.33;;;;;4.22;95.90;98733.38;4994851;28;45476;-77
2022/01/10 04:08:32;;;;;;;;;42.67;37.67;;;;;4.17;95.33;98737.00;4984051;28;45519;-77
2022/01/10 04:10:58;;;;;;;;;43.00;38.00;;;;;4.14;95.19;98737.06;4978300;28;45360;-77
2022/01/10 04:13:23;;;;;;;;;46.67;39.00;;;;;4.12;95.93;98736.22;4994425;28;45324;-76
2022/01/10 04:15:49;;;;;;;;;40.33;38.33;;;;;4.11;95.71;98740.59;5005705;28;45499;-76
2022/01/10 04:18:15;;;;;;;;;45.67;39.00;;;;;4.12;95.53;98736.22;4986904;28;45351;-76
2022/01/10 04:20:41;;;;;;;;;47.67;37.00;;;;;4.12;95.61;98734.47;5000268;28;45373;-77
2022/01/10 04:23:07;;;;;;;;;50.67;40.33;;;;;4.12;95.66;98738.84;4987529;28;45460;-77
2022/01/10 04:25:32;;;;;;;;;46.33;39.67;;;;;4.08;95.64;98730.22;4984372;28;45342;-77
2022/01/10 04:27:57;;;;;;;;;53.67;41.33;;;;;4.09;95.50;98731.06;4996948;28;45377;-77
2022/01/10 04:30:23;;;;;;;;;48.00;39.67;;;;;4.11;95.79;98743.19;5002151;28;45461;-76
2022/01/10 04:32:48;;;;;;;;;59.00;42.33;;;;;4.08;95.61;98742.41;4993752;28;45542;-76
2022/01/10 04:35:14;;;;;;;;;51.33;39.00;;;;;4.09;95.51;98754.56;5005341;28;45541;-77
2022/01/10 04:37:39;;;;;;;;;47.67;40.67;;;;;4.09;95.65;98754.56;4994436;28;46391;-76
2022/01/10 04:40:07;;;;;;;;;55.00;39.67;;;;;4.11;95.84;98739.72;4996508;28;45440;-76
2022/01/10 04:42:32;;;;;;;;;49.00;41.00;;;;;4.12;95.63;98744.06;4997009;28;45335;-77
2022/01/10 04:44:58;;;;;;;;;50.33;40.00;;;;;4.08;95.98;98742.41;4990877;28;45378;-77
2022/01/10 04:47:23;;;;;;;;;44.67;38.33;;;;;4.08;95.52;98739.78;4984549;28;45373;-77
2022/01/10 04:52:17;;;;;;;;;44.67;40.00;;;;;4.09;95.51;98744.13;4995437;28;45554;-77
2022/01/10 04:54:42;;;;;;;;;36.67;36.33;;;;;4.09;95.03;98742.38;5007149;28;45637;-77
2022/01/10 04:57:08;;;;;;;;;35.00;27.67;;;;;4.11;95.20;98758.84;4997297;28;46595;-77
2022/01/10 04:59:33;;;;;;;;;37.67;29.33;;;;;4.12;95.23;98762.31;5003165;28;45419;-77
2022/01/10 05:01:58;;;;;;;;;44.33;36.00;;;;;4.13;95.15;98761.44;4997745;28;45419;-77
2022/01/10 05:04:24;;;;;;;;;40.00;34.67;;;;;4.14;94.59;98763.16;4999390;28;45605;-77
2022/01/10 05:06:49;;;;;;;;;46.67;39.00;;;;;4.13;94.71;98762.28;4987575;28;47784;-78
2022/01/10 05:09:15;;;;;;;;;46.67;37.67;;;;;4.13;94.69;98759.69;4994432;28;45488;-76
2022/01/10 05:11:40;;;;;;;;;40.00;35.33;;;;;4.12;94.72;98764.94;4996049;28;45710;-77
2022/01/10 05:14:06;;;;;;;;;39.33;36.33;;;;;4.14;94.72;98768.38;4997224;28;45591;-76
2022/01/10 05:16:32;;;;;;;;;37.00;36.67;;;;;4.13;94.02;98771.88;5006379;28;45531;-77
2022/01/10 05:18:57;;;;;;;;;45.00;36.67;;;;;4.10;95.22;98774.53;4989698;28;45532;-77
2022/01/10 05:21:23;;;;;;;;;49.00;40.67;;;;;4.06;94.62;98780.69;4979799;28;45382;-76
2022/01/10 05:23:48;;;;;;;;;44.00;37.00;;;;;4.06;95.04;98778.94;4993956;28;45482;-77
2022/01/10 05:26:14;;;;;;;;;37.67;33.67;;;;;4.05;95.16;98782.44;4996496;28;45619;-77
2022/01/10 05:28:39;;;;;;;;;47.33;41.00;;;;;4.06;95.26;98786.75;4993405;28;45314;-77
2022/01/10 05:31:05;;;;;;;;;56.00;43.67;;;;;4.05;95.21;98789.41;4995570;28;45632;-77
2022/01/10 05:33:31;;;;;;;;;52.33;42.00;;;;;4.06;94.97;98793.72;4994767;28;45310;-77
2022/01/10 05:35:56;;;;;;;;;47.00;39.33;;;;;4.05;95.26;98803.31;4984604;28;45288;-76
2022/01/10 05:38:21;;;;;;;;;46.67;38.00;;;;;4.06;95.45;98802.41;4997447;28;45467;-77
2022/01/10 05:40:47;;;;;;;;;44.67;38.00;;;;;4.07;95.20;98798.91;4995733;28;45499;-77
2022/01/10 05:43:13;;;;;;;;;44.33;38.33;;;;;4.07;95.02;98795.44;4994402;28;45523;-76
2022/01/10 05:45:42;;;;;;;;;40.67;36.67;;;;;4.01;94.69;98801.66;5021632;28;47084;-77
2022/01/10 05:48:12;;;;;;;;;33.00;25.00;;;;;3.90;94.31;98797.50;4995559;28;45558;-77
2022/01/10 05:50:40;;;;;;;;;38.00;30.00;;;;;3.81;94.60;98807.25;5005182;28;45445;-76
2022/01/10 05:53:06;;;;;;;;;43.33;38.00;;;;;3.75;95.37;98803.88;4990633;28;45453;-77
2022/01/10 05:55:32;;;;;;;;;43.00;37.33;;;;;3.71;95.62;98807.41;4999992;28;45611;-77
2022/01/10 05:57:58;;;;;;;;;48.00;37.00;;;;;3.71;96.25;98807.41;4996022;28;45433;-77
2022/01/10 06:00:23;;;;;;;;;52.33;41.00;;;;;3.74;96.66;98812.59;4995467;28;45328;-76
2022/01/10 06:02:49;;;;;;;;;38.67;36.00;;;;;3.77;96.39;98812.53;4992169;28;45628;-77
2022/01/10 06:05:15;;;;;;;;;59.67;41.33;;;;;3.81;96.31;98827.25;5001141;28;45476;-77
2022/01/10 06:07:41;;;;;;;;;46.00;35.00;;;;;3.81;96.52;98833.31;5010983;28;45314;-77
2022/01/10 06:10:07;;;;;;;;;47.33;41.00;;;;;3.83;96.63;98830.69;4996673;28;45140;-77
2022/01/10 06:12:32;;;;;;;;;55.33;39.33;;;;;3.81;96.05;98833.31;4984519;28;45607;-77
2022/01/10 06:14:58;;;;;;;;;50.00;41.67;;;;;3.80;96.66;98828.13;4989652;28;45936;-76
2022/01/10 06:17:23;;;;;;;;;47.33;39.00;;;;;3.79;96.63;98832.47;4988748;28;45413;-76
2022/01/10 06:19:49;;;;;;;;;43.33;35.00;;;;;3.84;96.91;98837.63;4999580;28;45488;-77
2022/01/10 06:22:14;;;;;;;;;46.67;37.00;;;;;3.84;96.38;98842.84;4998847;28;45416;-77
2022/01/10 06:24:40;;;;;;;;;48.33;31.33;;;;;3.86;96.59;98843.63;4997142;28;46426;-77
2022/01/10 06:27:05;;;;;;;;;35.33;31.33;;;;;3.88;96.20;98847.09;4994570;28;45467;-77
2022/01/10 06:29:31;;;;;;;;;27.67;23.33;;;;;3.92;95.93;98860.94;4993363;28;45450;-78
2022/01/10 06:31:56;;;;;;;;;31.67;26.33;;;;;3.92;95.61;98860.94;4989543;28;45475;-77
2022/01/10 06:34:22;;;;;;;;;23.67;21.00;;;;;3.95;95.74;98869.56;4995257;28;47748;-76
2022/01/10 06:36:47;;;;;;;;;27.33;22.00;;;;;3.95;95.58;98868.72;4986723;28;45198;-77
2022/01/10 06:39:12;;;;;;;;;22.00;20.00;;;;;3.98;95.52;98876.47;4995182;28;45416;-76
2022/01/10 06:41:38;;;;;;;;;24.33;21.33;;;;;4.00;95.44;98879.94;4994148;28;45295;-77
2022/01/10 06:44:05;;;;;;;;;24.00;20.67;;;;;4.02;95.39;98879.00;4995241;28;46615;-77
2022/01/10 06:46:30;;;;;;;;;22.00;19.33;;;;;4.05;95.46;98902.41;4992466;28;45341;-77
2022/01/10 06:48:56;;;;;;;;;25.00;20.00;;;;;4.06;95.29;98904.13;4986635;28;45291;-77
2022/01/10 06:51:21;;;;;;;;;23.33;21.67;;;;;4.08;94.68;98904.13;4992172;28;45391;-77
2022/01/10 06:53:47;;;;;;;;;20.33;17.67;;;;;4.10;95.05;98912.78;4975211;28;45501;-73
2022/01/10 06:56:12;;;;;;;;;25.00;20.33;;;;;4.14;95.06;98914.44;4985799;28;45500;-64
2022/01/10 06:58:38;;;;;;;;;20.00;17.00;;;;;4.19;95.28;98920.44;4985601;28;45485;-64
2022/01/10 07:01:04;;;;;;;;;25.67;25.00;;;;;4.21;94.56;98914.28;5001343;28;45569;-69
2022/01/10 07:03:29;;;;;;;;;22.00;22.00;;;;;4.25;94.57;98928.16;4983409;28;46584;-68
2022/01/10 07:05:54;;;;;;;;;24.67;24.67;;;;;4.28;94.35;98937.69;4983602;28;45602;-69
2022/01/10 07:08:22;;;;;;;;;22.67;20.00;;;;;4.29;94.41;98932.44;4992047;28;45543;-68
2022/01/10 07:10:47;;;;;;;;;22.00;21.33;;;;;4.30;94.14;98936.78;4996300;28;45528;-70
2022/01/10 07:13:13;;;;;;;;;26.67;22.00;;;;;4.28;94.16;98946.38;4990959;28;46097;-72
2022/01/10 07:15:38;;;;;;;;;22.67;18.00;;;;;4.29;94.08;98957.66;4990967;28;45464;-70
2022/01/10 07:18:04;;;;;;;;;19.00;17.00;;;;;4.30;94.40;98951.56;4990482;28;45432;-70
2022/01/10 07:20:31;;;;;;;;;25.33;25.00;;;;;4.30;94.07;98955.03;4986426;28;45680;-70
2022/01/10 07:22:56;;;;;;;;;18.33;16.67;;;;;4.33;94.08;98961.97;4980997;28;45461;-70
2022/01/10 07:25:22;;;;;;;;;32.33;30.00;;;;;4.36;94.37;98961.88;4999597;28;45448;-70
2022/01/10 07:27:47;;;;;;;;;22.67;18.33;;;;;4.37;93.73;98961.84;4993177;28;45477;-70
2022/01/10 07:30:13;;;;;;;;;31.67;27.33;;;;;4.39;94.06;98957.47;4989292;28;45442;-70
2022/01/10 07:32:38;;;;;;;;;33.00;28.00;;;;;4.43;93.88;98964.38;4974371;28;45760;-70
2022/01/10 07:35:05;;;;;;;;;27.33;26.67;;;;;4.43;93.80;98966.97;4991247;28;45520;-71
2022/01/10 07:37:30;;;;;;;;;34.67;29.00;;;;;4.43;93.31;98981.78;4992154;28;45505;-70
2022/01/10 07:39:55;;;;;;;;;29.00;26.00;;;;;4.41;93.57;98973.97;4982218;28;45460;-70
2022/01/10 07:42:21;;;;;;;;;29.67;28.33;;;;;4.44;93.66;98976.53;4985855;28;46079;-70
2022/01/10 07:44:46;;;;;;;;;36.67;32.00;;;;;4.46;93.22;98985.19;4989510;28;46153;-69
2022/01/10 07:47:12;;;;;;;;;36.67;32.67;;;;;4.48;93.47;98987.78;4985596;28;45521;-69
2022/01/10 07:49:37;;;;;;;;;37.00;34.67;;;;;4.47;93.37;98986.06;4995102;28;45562;-71
2022/01/10 07:52:03;;;;;;;;;31.00;28.33;;;;;4.49;93.48;98995.59;4981089;28;45768;-69
2022/01/10 07:54:28;;;;;;;;;32.00;24.33;;;;;4.50;93.62;98999.91;4992585;28;45346;-69
2022/01/10 07:56:54;;;;;;;;;28.33;24.33;;;;;4.49;93.37;98990.38;4996731;28;45469;-70
2022/01/10 07:59:22;;;;;;;;;22.33;22.33;;;;;4.47;93.11;99001.72;4993728;28;45472;-69
2022/01/10 08:01:48;;;;;;;;;25.67;22.67;;;;;4.45;93.03;99012.19;4984900;28;46179;-68
2022/01/10 08:04:14;;;;;;;;;30.33;26.67;;;;;4.45;92.77;99014.78;5002304;28;45412;-69
2022/01/10 08:06:39;;;;;;;;;24.67;22.33;;;;;4.45;92.82;99013.94;5008953;28;45674;-70
2022/01/10 08:09:06;;;;;;;;;29.67;27.67;;;;;4.43;92.88;99023.53;4988215;28;45800;-70
2022/01/10 08:11:32;;;;;;;;;36.00;28.67;;;;;4.45;92.52;99029.59;5003554;28;46389;-71
2022/01/10 08:13:57;;;;;;;;;34.00;30.00;;;;;4.45;92.46;99033.06;4992241;28;45467;-70
2022/01/10 08:16:23;;;;;;;;;32.33;29.67;;;;;4.48;92.68;99043.47;4995801;28;45679;-68
2022/01/10 08:18:48;;;;;;;;;29.33;26.67;;;;;4.53;93.06;99039.00;4998264;28;45528;-68
2022/01/10 08:21:13;;;;;;;;;38.00;32.33;;;;;4.59;92.39;99045.00;5004468;28;46120;-68
2022/01/10 08:23:39;;;;;;;;;45.33;34.33;;;;;4.62;92.22;99052.78;4987860;28;45590;-68
2022/01/10 08:26:08;;;;;;;;;32.00;27.67;;;;;4.66;92.36;99057.94;5005105;28;45386;-69
2022/01/10 08:28:37;;;;;;;;;30.00;27.33;;;;;4.73;91.95;99069.13;4987172;28;45508;-68
2022/01/10 08:31:03;;;;;;;;;32.67;28.67;;;;;4.78;91.89;99060.34;5003526;28;45348;-70
2022/01/10 08:33:28;;;;;;;;;37.00;33.67;;;;;4.87;91.95;99067.13;4986051;28;45503;-68
2022/01/10 08:35:54;;;;;;;;;33.33;26.33;;;;;4.97;91.43;99071.31;4996917;28;45430;-70
2022/01/10 08:38:20;;;;;;;;;27.33;23.67;;;;;5.06;90.59;99073.75;4982549;28;45364;-70
2022/01/10 08:40:46;;;;;;;;;28.67;26.33;;;;;5.11;90.77;99076.28;5003418;28;45658;-67
2022/01/10 08:43:12;;;;;;;;;24.67;22.00;;;;;5.18;90.82;99078.75;4981339;28;45427;-71
2022/01/10 08:45:40;;;;;;;;;18.67;16.67;;;;;5.27;90.36;99077.69;4991392;28;45490;-70
2022/01/10 08:48:07;;;;;;;;;20.67;20.67;;;;;5.35;89.78;99083.66;4990590;28;45564;-71
2022/01/10 08:50:34;;;;;;;;;22.67;20.33;;;;;5.42;89.36;99081.75;5004307;28;45479;-71
2022/01/10 08:53:08;;;;;;;;;17.67;15.67;;;;;5.49;89.11;99075.53;4977922;28;45331;-71
2022/01/10 08:55:34;;;;;;;;;27.33;20.00;;;;;5.53;88.80;99085.03;4996478;28;45330;-71
2022/01/10 08:58:01;;;;;;;;;23.33;20.67;;;;;5.58;88.81;99086.66;4996165;28;45422;-71
2022/01/10 09:00:27;;;;;;;;;18.67;15.33;;;;;5.64;88.41;99093.50;5004220;28;45412;-69
2022/01/10 09:02:53;;;;;;;;;15.33;15.00;;;;;5.68;88.18;99089.09;4996475;28;45338;-69
2022/01/10 09:05:18;;;;;;;;;18.33;14.67;;;;;5.73;88.11;99101.16;5003532;28;45406;-70
2022/01/10 09:07:44;;;;;;;;;22.67;18.00;;;;;5.80;88.32;99096.66;4995373;28;45305;-70
2022/01/10 09:10:10;;;;;;;;;19.67;18.33;;;;;5.87;88.60;99106.09;5001632;28;46161;-70
2022/01/10 09:12:35;;;;;;;;;19.33;18.33;;;;;5.94;88.24;99111.19;4996549;28;45337;-70
2022/01/10 09:15:01;;;;;;;;;24.00;22.67;;;;;5.96;87.78;99116.41;5005208;28;45448;-69
2022/01/10 09:17:26;;;;;;;;;23.67;18.67;;;;;5.96;87.42;99108.56;4994796;28;45370;-70
2022/01/10 09:19:52;;;;;;;;;30.33;20.67;;;;;5.98;88.07;99116.38;4998566;28;45919;-70
2022/01/10 09:22:17;;;;;;;;;26.67;21.33;;;;;6.04;88.02;99108.38;4993956;28;45341;-70
2022/01/10 09:24:46;;;;;;;;;25.33;21.33;;;;;6.10;87.90;99111.72;4997202;28;45640;-70
2022/01/10 09:27:15;;;;;;;;;24.00;20.00;;;;;6.17;87.77;99118.56;4992332;28;45403;-71
2022/01/10 09:29:42;;;;;;;;;23.67;23.00;;;;;6.26;87.62;99127.94;4996400;28;45379;-70
2022/01/10 09:32:09;;;;;;;;;20.33;17.67;;;;;6.33;87.23;99129.53;4990071;28;45441;-70
2022/01/10 09:34:35;;;;;;;;;21.00;16.67;;;;;6.38;87.17;99129.41;4996775;28;45469;-71
2022/01/10 09:37:00;;;;;;;;;20.67;17.67;;;;;6.42;86.81;99128.47;4989781;28;45475;-71
2022/01/10 09:39:26;;;;;;;;;12.33;10.00;;;;;6.49;85.83;99119.56;4994307;28;45443;-70
2022/01/10 09:41:52;;;;;;;;;21.67;20.67;;;;;6.51;85.18;99130.88;4996332;28;45311;-71
2022/01/10 09:44:18;;;;;;;;;17.33;16.00;;;;;6.49;85.06;99137.91;5001996;28;45564;-70
2022/01/10 09:46:48;;;;;;;;;13.33;11.00;;;;;6.51;85.41;99141.34;5015557;28;45409;-71
2022/01/10 09:49:17;;;;;;;;;15.00;14.00;;;;;6.55;85.33;99149.06;4999924;28;46208;-71
2022/01/10 09:51:43;;;;;;;;;13.67;9.67;;;;;6.58;84.25;99154.25;4986654;28;45377;-71
2022/01/10 09:54:08;;;;;;;;;15.67;11.33;;;;;6.56;84.52;99157.78;4988498;28;45332;-70
2022/01/10 09:56:34;;;;;;;;;15.33;11.67;;;;;6.61;84.27;99163.78;5001911;28;45532;-69
2022/01/10 09:59:00;;;;;;;;;13.00;11.67;;;;;6.68;83.42;99156.66;4993194;28;45928;-70
2022/01/10 10:01:28;;;;;;;;;10.33;9.00;;;;;6.71;82.89;99161.81;5001922;28;45512;-71
2022/01/10 10:03:58;;;;;;;;;11.33;8.33;;;;;6.74;83.58;99165.22;4996168;28;45389;-71
2022/01/10 10:06:25;;;;;;;;;7.00;5.33;;;;;6.78;81.19;99164.25;5014106;28;45369;-69
2022/01/10 10:08:51;;;;;;;;;12.00;8.67;;;;;6.78;81.10;99172.13;4986226;28;47914;-69
2022/01/10 10:11:16;;;;;;;;;10.00;8.00;;;;;6.74;79.46;99172.22;4997680;28;45449;-68
2022/01/10 10:13:55;;;;;;;;;9.00;8.00;;;;;6.70;80.33;99163.59;4984327;28;45465;-69
2022/01/10 10:16:21;;;;;;;;;10.00;6.33;;;;;6.65;77.98;99166.31;4997179;28;45392;-70
2022/01/10 10:18:47;;;;;;;;;5.25;4.00;;;;;6.53;77.62;99184.94;4986265;28;45424;-70
2022/01/10 10:21:18;;;;;;;;;6.25;5.25;;;;;6.40;77.21;99175.63;5005725;28;45368;-70
2022/01/10 10:23:48;;;;;;;;;6.33;5.33;;;;;6.34;79.61;99178.41;4986303;28;45380;-70
2022/01/10 10:26:23;;;;;;;;;9.33;7.00;;;;;6.28;79.35;99179.38;5003781;28;45436;-70
2022/01/10 10:28:51;;;;;;;;;9.67;9.67;;;;;6.29;80.39;99193.34;4996070;28;46533;-70
2022/01/10 10:31:31;;;;;;;;;7.00;6.33;;;;;6.34;80.97;99185.38;4990974;28;45561;-70
2022/01/10 10:33:58;;;;;;;;;10.67;8.67;;;;;6.43;82.65;99186.03;4990943;28;45457;-70
2022/01/10 10:36:30;;;;;;;;;8.00;7.67;;;;;6.53;81.81;99191.94;4995347;28;45516;-70
2022/01/10 10:38:57;;;;;;;;;19.00;18.00;;;;;6.62;82.95;99191.72;4989467;28;46610;-70
2022/01/10 10:41:24;;;;;;;;;20.33;18.33;;;;;6.71;83.29;99188.88;5006332;28;45382;-70
2022/01/10 10:43:54;;;;;;;;;23.33;21.33;;;;;6.87;83.41;99200.72;5008587;28;45488;-70
2022/01/10 10:46:24;;;;;;;;;23.67;21.33;;;;;6.98;83.74;99193.47;4983296;28;45468;-70
2022/01/10 10:48:52;;;;;;;;;21.00;19.33;;;;;7.07;82.39;99196.75;4991499;28;46033;-70
2022/01/10 10:51:17;;;;;;;;;21.67;19.33;;;;;7.10;82.93;99201.91;4975311;28;45508;-70
2022/01/10 10:53:43;;;;;;;;;21.67;18.67;;;;;7.12;82.71;99203.59;4975167;28;45564;-70
2022/01/10 10:56:09;;;;;;;;;21.00;20.33;;;;;7.14;81.83;99209.69;4975554;28;45436;-71
2022/01/10 10:58:34;;;;;;;;;25.00;18.67;;;;;7.13;81.44;99201.84;4975193;28;45354;-70
2022/01/10 11:01:01;;;;;;;;;15.00;14.67;;;;;7.10;79.04;99199.28;4975207;28;45299;-70
2022/01/10 11:03:27;;;;;;;;;14.33;11.00;;;;;7.00;79.08;99204.78;4974100;28;45362;-70
2022/01/10 11:06:03;;;;;;;;;10.67;10.00;;;;;6.97;80.60;99196.13;4974964;28;45500;-70
2022/01/10 11:08:31;;;;;;;;;13.00;12.33;;;;;6.99;81.16;99199.56;4973404;28;47487;-70
2022/01/10 11:10:59;;;;;;;;;19.33;17.33;;;;;6.99;81.13;99200.44;4974609;28;45417;-70
2022/01/10 11:13:25;;;;;;;;;12.33;10.00;;;;;6.96;77.95;99207.50;4992813;28;45310;-70
2022/01/10 11:15:52;;;;;;;;;7.33;5.00;;;;;6.87;80.45;99200.72;4983776;28;45449;-70
2022/01/10 11:18:20;;;;;;;;;9.00;7.00;;;;;6.79;75.76;99210.53;4973825;28;47064;-71
2022/01/10 11:20:48;;;;;;;;;9.00;8.00;;;;;6.64;74.53;99213.50;4973477;28;45500;-70
2022/01/10 11:23:14;;;;;;;;;9.00;4.67;;;;;6.52;77.87;99198.94;4975223;28;45374;-70
2022/01/10 11:25:42;;;;;;;;;11.33;9.67;;;;;6.50;78.14;99203.34;4973203;28;46151;-69
2022/01/10 11:28:23;;;;;;;;;11.33;9.00;;;;;6.48;75.64;99205.13;4973479;28;46331;-70
2022/01/10 11:30:51;;;;;;;;;2.00;2.00;;;;;6.52;76.60;99221.63;4975942;28;45383;-69
2022/01/10 11:33:19;;;;;;;;;9.00;7.33;;;;;6.53;75.03;99232.09;4987916;28;45204;-71